Time;durP1;ratioP1;P1;durP2;ratioP2;P2;SDS_P1;SDS_P2;PMS_P1;PMS_P2;Temp;Humidity;BMP_temperature;BMP_pressure;BME280_temperature;BME280_humidity;BME280_pressure;Samples;Min_cycle;Max_cycle;Signal;HPM_P1;HPM_P2
2024/01/30 00:01:46;;;;;;;6.63;3.70;;;;;;;;;;5076628;28;20219;-79
2024/01/30 00:04:12;;;;;;;8.83;3.83;;;;;;;;;;5080658;28;20305;-79
2024/01/30 00:06:38;;;;;;;4.93;3.47;;;;;;;;;;5079384;28;20643;-79
2024/01/30 00:09:05;;;;;;;11.50;4.40;;;;;;;;;;5084120;28;20183;-79
2024/01/30 00:11:31;;;;;;;11.33;4.47;;;;;;;;;;5077195;28;20199;-77
2024/01/30 00:13:57;;;;;;;7.77;3.63;;;;;;;;;;5075885;28;20655;-76
2024/01/30 00:16:26;;;;;;;8.17;4.30;;;;;;;;;;5077618;28;20206;-78
2024/01/30 00:18:52;;;;;;;8.00;3.67;;;;;;;;;;5074008;28;20305;-78
2024/01/30 00:21:18;;;;;;;8.90;3.50;;;;;;;;;;5075338;28;20796;-78
2024/01/30 00:23:45;;;;;;;6.63;3.40;;;;;;;;;;5075293;28;20184;-79
2024/01/30 00:26:11;;;;;;;7.47;3.53;;;;;;;;;;5078628;28;20210;-78
2024/01/30 00:28:37;;;;;;;6.23;3.63;;;;;;;;;;5072224;28;20230;-78
2024/01/30 00:31:04;;;;;;;10.30;4.33;;;;;;;;;;5078172;28;20210;-78
2024/01/30 00:33:30;;;;;;;9.27;4.47;;;;;;;;;;5079234;28;20300;-77
2024/01/30 00:35:56;;;;;;;7.97;3.60;;;;;;;;;;5080555;28;20262;-77
2024/01/30 00:38:22;;;;;;;7.43;3.20;;;;;;;;;;5070864;28;20223;-79
2024/01/30 00:40:48;;;;;;;8.70;3.87;;;;;;;;;;5060365;28;20225;-78
2024/01/30 00:43:14;;;;;;;4.60;3.53;;;;;;;;;;5081683;28;20234;-78
2024/01/30 00:45:40;;;;;;;8.03;4.17;;;;;;;;;;5078741;28;20214;-78
2024/01/30 00:48:06;;;;;;;7.50;4.30;;;;;;;;;;5076320;28;20637;-78
2024/01/30 00:50:32;;;;;;;5.90;3.57;;;;;;;;;;5055272;28;20211;-78
2024/01/30 00:52:58;;;;;;;6.57;3.43;;;;;;;;;;5059821;28;20214;-78
2024/01/30 00:55:24;;;;;;;4.90;3.17;;;;;;;;;;5076557;28;20729;-78
2024/01/30 00:57:50;;;;;;;6.63;3.87;;;;;;;;;;5077229;28;20300;-78
2024/01/30 01:00:17;;;;;;;10.13;4.60;;;;;;;;;;5077478;28;20684;-78
2024/01/30 01:02:43;;;;;;;11.03;4.13;;;;;;;;;;5081378;28;20182;-77
2024/01/30 01:05:09;;;;;;;6.53;3.53;;;;;;;;;;5076772;28;20835;-78
2024/01/30 01:07:35;;;;;;;8.37;4.00;;;;;;;;;;5077125;28;20565;-78
2024/01/30 01:10:02;;;;;;;8.03;3.13;;;;;;;;;;5082717;28;20210;-78
2024/01/30 01:12:28;;;;;;;6.00;3.80;;;;;;;;;;5074530;28;21313;-78
2024/01/30 01:14:54;;;;;;;7.53;3.87;;;;;;;;;;5077042;28;20203;-79
2024/01/30 01:17:20;;;;;;;6.30;3.83;;;;;;;;;;5075399;28;20218;-79
2024/01/30 01:19:46;;;;;;;6.83;3.50;;;;;;;;;;5080189;28;20214;-79
2024/01/30 01:22:12;;;;;;;6.40;4.00;;;;;;;;;;5077952;28;20202;-78
2024/01/30 01:24:38;;;;;;;8.47;3.87;;;;;;;;;;5073225;28;20280;-78
2024/01/30 01:27:06;;;;;;;8.90;4.63;;;;;;;;;;5078315;28;20241;-78
2024/01/30 01:29:32;;;;;;;9.33;4.53;;;;;;;;;;5079607;28;20207;-80
2024/01/30 01:31:58;;;;;;;8.57;4.07;;;;;;;;;;5078807;28;20206;-77
2024/01/30 01:34:24;;;;;;;11.57;3.67;;;;;;;;;;5060032;28;20240;-78
2024/01/30 01:36:51;;;;;;;9.67;4.13;;;;;;;;;;5075528;28;20268;-78
2024/01/30 01:39:17;;;;;;;7.13;4.00;;;;;;;;;;5068139;28;20198;-79
2024/01/30 01:41:43;;;;;;;6.30;3.73;;;;;;;;;;5076157;28;20234;-79
2024/01/30 01:44:09;;;;;;;6.43;3.60;;;;;;;;;;5075340;28;20212;-78
2024/01/30 01:46:35;;;;;;;9.00;3.50;;;;;;;;;;5062609;28;20202;-79
2024/01/30 01:49:03;;;;;;;8.23;4.37;;;;;;;;;;5079675;28;20206;-78
2024/01/30 01:51:30;;;;;;;9.23;4.23;;;;;;;;;;5075135;28;20207;-79
2024/01/30 01:53:56;;;;;;;7.97;3.87;;;;;;;;;;5078034;28;20708;-77
2024/01/30 01:56:23;;;;;;;7.67;3.80;;;;;;;;;;5057784;28;20214;-77
2024/01/30 01:58:50;;;;;;;5.50;3.97;;;;;;;;;;5074841;28;20700;-79
2024/01/30 02:01:18;;;;;;;7.47;3.50;;;;;;;;;;5071332;28;20218;-77
2024/01/30 02:03:44;;;;;;;10.87;3.43;;;;;;;;;;5073650;28;20222;-77
2024/01/30 02:06:10;;;;;;;15.63;4.37;;;;;;;;;;5075079;28;20194;-79
2024/01/30 02:08:38;;;;;;;6.47;3.83;;;;;;;;;;5078351;28;20201;-78
2024/01/30 02:11:04;;;;;;;9.63;4.37;;;;;;;;;;5076950;28;20696;-78
2024/01/30 02:13:30;;;;;;;10.33;4.57;;;;;;;;;;5073437;28;20210;-78
2024/01/30 02:15:56;;;;;;;10.40;4.33;;;;;;;;;;5070597;28;20592;-77
2024/01/30 02:18:23;;;;;;;8.00;4.47;;;;;;;;;;5072547;28;20179;-77
2024/01/30 02:20:49;;;;;;;6.40;3.77;;;;;;;;;;5059270;28;20212;-78
2024/01/30 02:23:18;;;;;;;8.83;4.47;;;;;;;;;;5073286;28;20217;-79
2024/01/30 02:25:45;;;;;;;8.00;4.50;;;;;;;;;;5075301;28;20206;-78
2024/01/30 02:28:12;;;;;;;7.53;3.47;;;;;;;;;;5075100;28;20211;-79
2024/01/30 02:30:38;;;;;;;8.23;3.77;;;;;;;;;;5072026;28;20258;-79
2024/01/30 02:33:04;;;;;;;6.60;3.77;;;;;;;;;;5082213;28;20174;-76
2024/01/30 02:35:30;;;;;;;11.53;4.40;;;;;;;;;;5058700;28;20767;-79
2024/01/30 02:37:56;;;;;;;9.90;4.10;;;;;;;;;;5070412;28;20218;-79
2024/01/30 02:40:22;;;;;;;7.60;3.93;;;;;;;;;;5057233;28;20633;-78
2024/01/30 02:42:48;;;;;;;13.27;4.27;;;;;;;;;;5077964;28;20278;-77
2024/01/30 02:45:14;;;;;;;8.53;4.30;;;;;;;;;;5054849;28;20285;-79
2024/01/30 02:47:40;;;;;;;6.63;4.90;;;;;;;;;;5077921;28;20545;-77
2024/01/30 02:50:07;;;;;;;9.20;4.13;;;;;;;;;;5063180;28;20211;-77
2024/01/30 02:52:33;;;;;;;6.90;3.67;;;;;;;;;;5077196;28;20206;-78
2024/01/30 02:54:59;;;;;;;9.60;4.30;;;;;;;;;;5071433;28;20774;-77
2024/01/30 02:57:25;;;;;;;7.33;4.40;;;;;;;;;;5069738;28;20232;-78
2024/01/30 02:59:52;;;;;;;7.40;4.13;;;;;;;;;;5074638;28;20691;-78
2024/01/30 03:02:18;;;;;;;7.37;4.07;;;;;;;;;;5070071;28;20860;-76
2024/01/30 03:04:44;;;;;;;9.50;4.17;;;;;;;;;;5074570;28;20241;-77
2024/01/30 03:07:10;;;;;;;7.77;4.17;;;;;;;;;;5075615;28;20206;-78
2024/01/30 03:09:37;;;;;;;11.67;3.93;;;;;;;;;;5070897;28;20203;-77
2024/01/30 03:12:03;;;;;;;8.50;4.13;;;;;;;;;;5061603;28;20199;-78
2024/01/30 03:14:31;;;;;;;9.93;4.30;;;;;;;;;;5073502;28;20218;-77
2024/01/30 03:16:58;;;;;;;8.97;4.23;;;;;;;;;;5068717;28;20219;-78
2024/01/30 03:19:24;;;;;;;9.47;4.17;;;;;;;;;;5057022;28;20210;-77
2024/01/30 03:21:50;;;;;;;8.33;4.40;;;;;;;;;;5073433;28;20854;-77
2024/01/30 03:24:17;;;;;;;7.87;4.60;;;;;;;;;;5074227;28;20599;-77
2024/01/30 03:26:43;;;;;;;7.13;3.80;;;;;;;;;;5074515;28;20231;-78
2024/01/30 03:29:09;;;;;;;13.00;4.37;;;;;;;;;;5075782;28;20222;-78
2024/01/30 03:31:35;;;;;;;10.07;4.27;;;;;;;;;;5074541;28;20293;-78
2024/01/30 03:34:01;;;;;;;7.13;3.93;;;;;;;;;;5076438;28;20249;-79
2024/01/30 03:36:27;;;;;;;7.77;4.00;;;;;;;;;;5074901;28;20184;-79
2024/01/30 03:38:54;;;;;;;16.20;4.33;;;;;;;;;;5080215;28;20189;-79
2024/01/30 03:41:20;;;;;;;9.67;4.30;;;;;;;;;;5071864;28;20303;-78
2024/01/30 03:43:47;;;;;;;8.47;4.13;;;;;;;;;;5067815;28;20962;-77
2024/01/30 03:46:13;;;;;;;10.30;4.23;;;;;;;;;;5078008;28;20248;-76
2024/01/30 03:48:39;;;;;;;10.10;3.93;;;;;;;;;;5073874;28;20242;-77
2024/01/30 03:51:05;;;;;;;8.90;4.37;;;;;;;;;;5069062;28;20552;-78
2024/01/30 03:53:31;;;;;;;8.57;4.37;;;;;;;;;;5077296;28;20720;-77
2024/01/30 03:55:57;;;;;;;9.47;4.47;;;;;;;;;;5070518;28;20214;-77
2024/01/30 03:58:23;;;;;;;9.80;4.50;;;;;;;;;;5039181;28;20214;-79
2024/01/30 04:00:49;;;;;;;7.83;4.40;;;;;;;;;;5075886;28;20225;-77
2024/01/30 04:03:15;;;;;;;7.07;3.87;;;;;;;;;;5077727;28;20268;-78
2024/01/30 04:05:42;;;;;;;6.37;4.47;;;;;;;;;;5080007;28;20621;-78
2024/01/30 04:08:08;;;;;;;9.33;4.13;;;;;;;;;;5074188;28;20923;-78
2024/01/30 04:10:34;;;;;;;6.90;4.03;;;;;;;;;;5054632;28;20226;-78
2024/01/30 04:13:00;;;;;;;7.77;4.20;;;;;;;;;;5076664;28;20301;-78
2024/01/30 04:15:27;;;;;;;7.93;4.10;;;;;;;;;;5076623;28;20913;-77
2024/01/30 04:17:53;;;;;;;8.63;4.20;;;;;;;;;;5080140;28;20197;-78
2024/01/30 04:20:19;;;;;;;6.93;4.17;;;;;;;;;;5075507;28;20217;-77
2024/01/30 04:22:46;;;;;;;7.97;4.30;;;;;;;;;;5079247;28;20210;-77
2024/01/30 04:25:12;;;;;;;9.73;4.23;;;;;;;;;;5076371;28;20619;-78
2024/01/30 04:27:39;;;;;;;7.63;4.20;;;;;;;;;;5076155;28;20211;-76
2024/01/30 04:30:05;;;;;;;8.07;4.43;;;;;;;;;;5081079;28;20185;-77
2024/01/30 04:32:31;;;;;;;7.30;4.17;;;;;;;;;;5073641;28;20850;-77
2024/01/30 04:34:57;;;;;;;6.87;4.67;;;;;;;;;;5079226;28;20738;-77
2024/01/30 04:37:23;;;;;;;9.20;4.27;;;;;;;;;;5078715;28;20215;-77
2024/01/30 04:39:49;;;;;;;7.67;4.03;;;;;;;;;;5073049;28;20234;-77
2024/01/30 04:42:15;;;;;;;7.27;4.13;;;;;;;;;;5067770;28;20558;-78
2024/01/30 04:44:41;;;;;;;5.87;3.80;;;;;;;;;;5078205;28;20199;-78
2024/01/30 04:47:08;;;;;;;10.67;4.10;;;;;;;;;;5077339;28;20297;-77
2024/01/30 04:49:35;;;;;;;6.87;4.03;;;;;;;;;;5076246;28;20775;-78
2024/01/30 04:52:01;;;;;;;11.97;4.57;;;;;;;;;;5079956;28;20210;-78
2024/01/30 04:54:27;;;;;;;9.50;5.00;;;;;;;;;;5074692;28;20198;-77
2024/01/30 04:56:53;;;;;;;8.47;3.97;;;;;;;;;;5071867;28;20171;-78
2024/01/30 04:59:19;;;;;;;6.17;4.10;;;;;;;;;;5077966;28;20237;-76
2024/01/30 05:01:45;;;;;;;9.38;5.35;;;;;;;;;;5075560;28;20502;-78
2024/01/30 05:04:11;;;;;;;4.97;3.80;;;;;;;;;;5077195;28;20294;-78
2024/01/30 05:06:37;;;;;;;5.67;3.73;;;;;;;;;;5076317;28;20244;-78
2024/01/30 05:09:06;;;;;;;8.70;4.20;;;;;;;;;;5076438;28;20220;-78
2024/01/30 05:11:37;;;;;;;6.87;4.13;;;;;;;;;;5075068;28;20446;-78
2024/01/30 05:14:03;;;;;;;7.27;4.73;;;;;;;;;;5077646;28;20683;-77
2024/01/30 05:16:29;;;;;;;6.67;4.13;;;;;;;;;;5053687;28;20297;-77
2024/01/30 05:18:55;;;;;;;8.20;4.17;;;;;;;;;;5074047;28;20211;-77
2024/01/30 05:21:21;;;;;;;9.87;4.57;;;;;;;;;;5072433;28;20696;-76
2024/01/30 05:23:47;;;;;;;8.90;4.03;;;;;;;;;;5080117;28;20186;-78
2024/01/30 05:26:13;;;;;;;7.20;4.30;;;;;;;;;;5074906;28;20211;-78
2024/01/30 05:28:39;;;;;;;6.93;4.27;;;;;;;;;;5073863;28;20203;-79
2024/01/30 05:31:05;;;;;;;8.23;4.03;;;;;;;;;;5077864;28;20292;-78
2024/01/30 05:33:31;;;;;;;7.80;4.40;;;;;;;;;;5076453;28;20284;-79
2024/01/30 05:35:57;;;;;;;8.17;4.20;;;;;;;;;;5077729;28;20605;-79
2024/01/30 05:38:23;;;;;;;6.43;4.13;;;;;;;;;;5075084;28;20218;-77
2024/01/30 05:40:49;;;;;;;9.73;4.40;;;;;;;;;;5075246;28;20261;-77
2024/01/30 05:43:15;;;;;;;7.97;4.20;;;;;;;;;;5076761;28;20296;-79
2024/01/30 05:45:41;;;;;;;11.07;4.77;;;;;;;;;;5053073;28;20874;-78
2024/01/30 05:48:07;;;;;;;8.43;4.47;;;;;;;;;;5080405;28;20187;-78
2024/01/30 05:50:33;;;;;;;12.10;4.73;;;;;;;;;;5073332;28;20277;-79
2024/01/30 05:52:59;;;;;;;8.67;3.90;;;;;;;;;;5069724;28;20223;-78
2024/01/30 05:55:25;;;;;;;6.33;4.17;;;;;;;;;;5070136;28;20214;-77
2024/01/30 05:57:52;;;;;;;8.63;4.70;;;;;;;;;;5071781;28;20206;-78
2024/01/30 06:00:18;;;;;;;6.83;3.87;;;;;;;;;;5079782;28;20244;-78
2024/01/30 06:02:44;;;;;;;10.20;5.00;;;;;;;;;;5077571;28;20195;-78
2024/01/30 06:05:10;;;;;;;11.40;4.90;;;;;;;;;;5072594;28;20214;-78
2024/01/30 06:07:36;;;;;;;7.97;4.77;;;;;;;;;;5072432;28;20230;-78
2024/01/30 06:10:03;;;;;;;11.93;4.63;;;;;;;;;;5076206;28;20740;-79
2024/01/30 06:12:29;;;;;;;9.87;4.90;;;;;;;;;;5074234;28;20218;-78
2024/01/30 06:14:56;;;;;;;8.13;4.90;;;;;;;;;;5076772;28;20329;-79
2024/01/30 06:17:23;;;;;;;10.30;5.00;;;;;;;;;;5075263;28;20222;-79
2024/01/30 06:19:49;;;;;;;6.80;4.73;;;;;;;;;;5045840;28;20238;-79
2024/01/30 06:22:15;;;;;;;9.10;5.00;;;;;;;;;;5071389;28;20246;-77
2024/01/30 06:24:41;;;;;;;10.57;4.40;;;;;;;;;;5072850;28;20676;-79
2024/01/30 06:27:07;;;;;;;8.83;4.33;;;;;;;;;;5082563;28;20182;-78
2024/01/30 06:29:33;;;;;;;9.20;4.43;;;;;;;;;;5082448;28;20223;-79
2024/01/30 06:31:59;;;;;;;6.67;4.43;;;;;;;;;;5088927;28;20258;-79
2024/01/30 06:34:26;;;;;;;9.73;4.30;;;;;;;;;;5087848;28;20227;-80
2024/01/30 06:36:52;;;;;;;9.63;5.07;;;;;;;;;;5095327;28;20277;-78
2024/01/30 06:39:18;;;;;;;7.47;4.53;;;;;;;;;;5095990;28;20193;-79
2024/01/30 06:41:46;;;;;;;12.30;4.67;;;;;;;;;;5088142;28;20226;-80
2024/01/30 06:44:12;;;;;;;8.03;4.80;;;;;;;;;;5085356;28;20218;-79
2024/01/30 06:46:38;;;;;;;8.70;4.97;;;;;;;;;;5085208;28;20226;-78
2024/01/30 06:49:04;;;;;;;9.53;4.83;;;;;;;;;;5068104;28;20214;-80
2024/01/30 06:51:30;;;;;;;12.93;4.77;;;;;;;;;;5073901;28;20273;-76
2024/01/30 06:53:56;;;;;;;10.10;4.53;;;;;;;;;;5079464;28;20206;-78
2024/01/30 06:56:22;;;;;;;17.20;5.90;;;;;;;;;;5065290;28;20210;-78
2024/01/30 06:58:49;;;;;;;14.47;5.93;;;;;;;;;;5076108;28;20688;-78
2024/01/30 07:01:16;;;;;;;12.00;5.17;;;;;;;;;;5079058;28;20211;-79
2024/01/30 07:03:42;;;;;;;11.70;5.23;;;;;;;;;;5079402;28;20217;-78
2024/01/30 07:06:08;;;;;;;9.57;5.00;;;;;;;;;;5081164;28;20295;-79
2024/01/30 07:08:34;;;;;;;8.90;4.80;;;;;;;;;;5055258;28;20283;-78
2024/01/30 07:11:00;;;;;;;11.40;4.80;;;;;;;;;;5075076;28;20216;-79
2024/01/30 07:13:26;;;;;;;12.60;4.67;;;;;;;;;;5057109;28;20296;-79
2024/01/30 07:15:52;;;;;;;9.20;5.43;;;;;;;;;;5081586;28;20226;-79
2024/01/30 07:18:18;;;;;;;7.90;4.37;;;;;;;;;;5074938;28;20272;-78
2024/01/30 07:20:47;;;;;;;8.17;5.33;;;;;;;;;;5071010;28;20462;-78
2024/01/30 07:23:15;;;;;;;12.03;4.30;;;;;;;;;;5079614;28;20595;-79
2024/01/30 07:25:41;;;;;;;9.07;5.13;;;;;;;;;;5083628;28;20484;-83
2024/01/30 07:28:11;;;;;;;8.60;4.67;;;;;;;;;;5085214;28;20206;-78
2024/01/30 07:30:37;;;;;;;12.97;4.77;;;;;;;;;;5080495;28;20202;-81
2024/01/30 07:33:03;;;;;;;13.47;5.53;;;;;;;;;;5079299;28;20178;-80
2024/01/30 07:35:29;;;;;;;11.63;4.73;;;;;;;;;;5060952;28;20265;-82
2024/01/30 07:37:57;;;;;;;10.97;5.57;;;;;;;;;;5081971;28;20207;-78
2024/01/30 07:40:23;;;;;;;14.73;5.33;;;;;;;;;;5080450;28;20214;-78
2024/01/30 07:42:49;;;;;;;10.87;4.83;;;;;;;;;;5080752;28;20759;-77
2024/01/30 07:45:16;;;;;;;10.73;4.63;;;;;;;;;;5084886;28;20205;-77
2024/01/30 07:47:45;;;;;;;7.63;4.60;;;;;;;;;;5064277;28;20520;-82
2024/01/30 07:50:11;;;;;;;8.00;4.87;;;;;;;;;;5082565;28;20281;-77
2024/01/30 07:52:37;;;;;;;8.67;4.13;;;;;;;;;;5086486;28;20244;-81
2024/01/30 07:55:03;;;;;;;11.30;5.37;;;;;;;;;;5091123;28;20274;-82
2024/01/30 07:57:29;;;;;;;10.60;5.07;;;;;;;;;;5087901;28;20229;-81
2024/01/30 07:59:57;;;;;;;11.53;4.90;;;;;;;;;;5090594;28;20179;-83
2024/01/30 08:02:23;;;;;;;8.23;4.67;;;;;;;;;;5092296;28;20214;-83
2024/01/30 08:04:49;;;;;;;13.33;4.67;;;;;;;;;;5089908;28;20260;-82
2024/01/30 08:07:17;;;;;;;7.67;4.23;;;;;;;;;;5094104;28;20266;-82
2024/01/30 08:09:43;;;;;;;10.93;4.40;;;;;;;;;;5095897;28;20224;-80
2024/01/30 08:12:09;;;;;;;9.67;4.80;;;;;;;;;;5092605;28;20189;-82
2024/01/30 08:14:35;;;;;;;9.90;5.00;;;;;;;;;;5095481;28;20195;-82
2024/01/30 08:17:01;;;;;;;11.13;5.13;;;;;;;;;;5090888;28;20293;-82
2024/01/30 08:19:27;;;;;;;17.57;5.73;;;;;;;;;;5075213;28;20217;-81
2024/01/30 08:21:53;;;;;;;11.50;4.97;;;;;;;;;;5086597;28;20218;-80
2024/01/30 08:24:19;;;;;;;9.60;5.20;;;;;;;;;;5076088;28;20198;-82
2024/01/30 08:26:45;;;;;;;10.47;5.27;;;;;;;;;;5093174;28;20669;-81
2024/01/30 08:29:11;;;;;;;10.63;4.67;;;;;;;;;;5070080;28;20218;-82
2024/01/30 08:31:37;;;;;;;7.27;4.33;;;;;;;;;;5089761;28;20263;-81
2024/01/30 08:34:03;;;;;;;7.77;4.47;;;;;;;;;;5095089;28;20221;-82
2024/01/30 08:36:29;;;;;;;8.37;4.80;;;;;;;;;;5099411;28;20221;-81
2024/01/30 08:38:55;;;;;;;11.13;5.10;;;;;;;;;;5086044;28;20653;-81
2024/01/30 08:41:21;;;;;;;7.43;4.23;;;;;;;;;;5069814;28;20207;-81
2024/01/30 08:43:47;;;;;;;7.97;4.77;;;;;;;;;;5087141;28;20206;-81
2024/01/30 08:46:13;;;;;;;8.80;5.00;;;;;;;;;;5075559;28;20314;-82
2024/01/30 08:48:39;;;;;;;9.77;5.23;;;;;;;;;;5090058;28;20210;-80
2024/01/30 08:51:08;;;;;;;8.43;4.70;;;;;;;;;;5096280;28;20438;-82
2024/01/30 08:53:34;;;;;;;17.97;5.50;;;;;;;;;;5095154;28;20202;-81
2024/01/30 08:56:00;;;;;;;10.10;5.40;;;;;;;;;;5089724;28;20218;-82
2024/01/30 08:58:26;;;;;;;9.60;4.93;;;;;;;;;;5091476;28;20631;-81
2024/01/30 09:00:52;;;;;;;9.93;5.43;;;;;;;;;;5083539;28;20228;-81
2024/01/30 09:03:19;;;;;;;12.83;5.07;;;;;;;;;;5079048;28;20186;-81
2024/01/30 09:05:45;;;;;;;7.03;3.97;;;;;;;;;;5079011;28;20202;-82
2024/01/30 09:08:11;;;;;;;11.03;6.20;;;;;;;;;;5059210;28;20736;-82
2024/01/30 09:10:37;;;;;;;9.83;5.33;;;;;;;;;;5063406;28;20198;-82
2024/01/30 09:13:03;;;;;;;12.10;5.43;;;;;;;;;;5071890;28;20814;-80
2024/01/30 09:15:29;;;;;;;11.03;5.10;;;;;;;;;;5086026;28;20207;-80
2024/01/30 09:17:55;;;;;;;9.00;5.27;;;;;;;;;;5094467;28;20202;-81
2024/01/30 09:20:22;;;;;;;9.80;4.60;;;;;;;;;;5065603;28;20756;-81
2024/01/30 09:22:49;;;;;;;11.53;4.90;;;;;;;;;;5082304;28;20265;-81
2024/01/30 09:25:15;;;;;;;8.43;4.83;;;;;;;;;;5088499;28;20210;-82
2024/01/30 09:27:41;;;;;;;13.57;5.27;;;;;;;;;;5091759;28;20203;-81
2024/01/30 09:30:07;;;;;;;10.43;5.13;;;;;;;;;;5092066;28;20452;-81
2024/01/30 09:32:33;;;;;;;10.10;5.23;;;;;;;;;;5092576;28;20217;-81
2024/01/30 09:34:59;;;;;;;9.57;4.40;;;;;;;;;;5090352;28;20841;-82
2024/01/30 09:37:25;;;;;;;12.70;4.40;;;;;;;;;;5090052;28;20199;-82
2024/01/30 09:39:51;;;;;;;13.03;5.13;;;;;;;;;;5089398;28;20217;-82
2024/01/30 09:42:29;;;;;;;10.53;4.80;;;;;;;;;;5071903;28;20178;-80
2024/01/30 09:44:56;;;;;;;16.50;5.57;;;;;;;;;;5088665;28;20218;-81
2024/01/30 09:47:22;;;;;;;9.37;4.90;;;;;;;;;;5086758;28;20218;-80
2024/01/30 09:49:49;;;;;;;10.73;4.83;;;;;;;;;;5089685;28;20223;-81
2024/01/30 09:52:15;;;;;;;8.10;4.37;;;;;;;;;;5094048;28;20202;-83
2024/01/30 09:54:42;;;;;;;10.30;4.60;;;;;;;;;;5092497;28;20247;-81
2024/01/30 09:57:09;;;;;;;8.60;4.90;;;;;;;;;;5088703;28;20194;-82
2024/01/30 09:59:35;;;;;;;12.10;4.97;;;;;;;;;;5064283;28;20222;-81
2024/01/30 10:02:03;;;;;;;12.20;5.33;;;;;;;;;;5068171;28;20222;-81
2024/01/30 10:04:29;;;;;;;18.43;5.37;;;;;;;;;;5073272;28;20203;-81
2024/01/30 10:06:55;;;;;;;8.87;4.37;;;;;;;;;;5089623;28;20226;-81
2024/01/30 10:09:21;;;;;;;10.67;4.70;;;;;;;;;;5070731;28;20178;-81
2024/01/30 10:11:47;;;;;;;8.37;4.00;;;;;;;;;;5088133;28;20201;-80
2024/01/30 10:14:13;;;;;;;9.67;4.80;;;;;;;;;;5090159;28;20703;-81
2024/01/30 10:16:39;;;;;;;12.30;4.53;;;;;;;;;;5094032;28;20222;-82
2024/01/30 10:19:06;;;;;;;7.70;4.00;;;;;;;;;;5072771;28;20203;-82
2024/01/30 10:21:32;;;;;;;8.77;4.33;;;;;;;;;;5091943;28;20672;-83
2024/01/30 10:23:58;;;;;;;8.40;4.27;;;;;;;;;;5075136;28;20205;-81
2024/01/30 10:26:24;;;;;;;8.27;4.30;;;;;;;;;;5097117;28;20210;-81
2024/01/30 10:28:51;;;;;;;9.33;4.50;;;;;;;;;;5089666;28;20317;-82
2024/01/30 10:31:18;;;;;;;10.33;4.73;;;;;;;;;;5089949;28;20202;-81
2024/01/30 10:33:45;;;;;;;8.30;5.20;;;;;;;;;;5074774;28;20499;-81
2024/01/30 10:36:15;;;;;;;12.03;4.70;;;;;;;;;;5091102;28;20724;-83
2024/01/30 10:38:42;;;;;;;9.43;4.27;;;;;;;;;;5088102;28;20242;-82
2024/01/30 10:41:08;;;;;;;6.50;4.40;;;;;;;;;;5070000;28;20221;-81
2024/01/30 10:43:41;;;;;;;7.97;4.60;;;;;;;;;;5091472;28;20214;-79
2024/01/30 10:46:21;;;;;;;8.53;4.63;;;;;;;;;;5071876;28;20232;-81
2024/01/30 10:48:51;;;;;;;8.60;4.37;;;;;;;;;;5071882;28;20230;-83
2024/01/30 10:51:19;;;;;;;6.13;3.60;;;;;;;;;;5094461;28;20261;-82
2024/01/30 10:53:48;;;;;;;9.30;4.40;;;;;;;;;;5090322;28;20174;-80
2024/01/30 10:56:14;;;;;;;8.23;4.03;;;;;;;;;;5094784;28;20210;-81
2024/01/30 10:58:40;;;;;;;10.30;4.10;;;;;;;;;;5091415;28;20217;-82
2024/01/30 11:01:07;;;;;;;11.60;4.20;;;;;;;;;;5070756;28;20222;-83
2024/01/30 11:03:36;;;;;;;11.23;4.73;;;;;;;;;;5090568;28;20224;-82
2024/01/30 11:06:02;;;;;;;7.83;4.10;;;;;;;;;;5089683;28;20206;-82
2024/01/30 11:08:29;;;;;;;11.70;4.23;;;;;;;;;;5088111;28;20234;-79
2024/01/30 11:10:57;;;;;;;8.53;4.47;;;;;;;;;;5083379;28;20245;-81
2024/01/30 11:13:27;;;;;;;7.07;3.93;;;;;;;;;;5090160;28;20213;-81
2024/01/30 11:15:53;;;;;;;10.03;4.33;;;;;;;;;;5094894;28;20226;-83
2024/01/30 11:18:25;;;;;;;7.77;4.03;;;;;;;;;;5098407;28;20228;-82
2024/01/30 11:20:52;;;;;;;7.27;4.20;;;;;;;;;;5086735;28;20615;-81
2024/01/30 11:23:18;;;;;;;8.27;4.30;;;;;;;;;;5090840;28;20208;-82
2024/01/30 11:25:45;;;;;;;11.77;4.70;;;;;;;;;;5085190;28;20726;-80
2024/01/30 11:28:17;;;;;;;7.27;4.03;;;;;;;;;;5087965;28;20210;-81
2024/01/30 11:30:44;;;;;;;7.23;4.27;;;;;;;;;;5090654;28;20215;-81
2024/01/30 11:33:11;;;;;;;7.63;3.97;;;;;;;;;;5090747;28;20208;-82
2024/01/30 11:35:41;;;;;;;9.67;4.27;;;;;;;;;;5092677;28;20201;-79
2024/01/30 11:38:11;;;;;;;10.40;5.17;;;;;;;;;;5088899;28;20203;-80
2024/01/30 11:40:38;;;;;;;8.30;4.00;;;;;;;;;;5091172;28;20206;-80
2024/01/30 11:43:05;;;;;;;8.30;4.40;;;;;;;;;;5086131;28;20218;-80
2024/01/30 11:45:31;;;;;;;6.30;4.57;;;;;;;;;;5066304;28;20211;-81
2024/01/30 11:48:03;;;;;;;10.47;5.10;;;;;;;;;;5089200;28;20267;-81
2024/01/30 11:50:29;;;;;;;9.63;4.90;;;;;;;;;;5095096;28;20499;-79
2024/01/30 11:52:56;;;;;;;7.50;4.40;;;;;;;;;;5087232;28;20221;-80
2024/01/30 11:55:22;;;;;;;7.60;4.77;;;;;;;;;;5091743;28;20245;-80
2024/01/30 11:57:48;;;;;;;10.93;4.40;;;;;;;;;;5090592;28;20700;-80
2024/01/30 12:00:15;;;;;;;12.20;5.67;;;;;;;;;;5087893;28;20195;-81
2024/01/30 12:02:41;;;;;;;9.27;5.40;;;;;;;;;;5077354;28;20170;-80
2024/01/30 12:05:07;;;;;;;9.70;5.43;;;;;;;;;;5084906;28;20842;-79
2024/01/30 12:07:33;;;;;;;11.63;5.00;;;;;;;;;;5090259;28;20206;-81
2024/01/30 12:10:00;;;;;;;8.87;4.63;;;;;;;;;;5085516;28;20215;-82
2024/01/30 12:12:26;;;;;;;10.07;4.57;;;;;;;;;;5079705;28;20175;-80
2024/01/30 12:14:53;;;;;;;10.13;5.87;;;;;;;;;;5086176;28;20209;-80
2024/01/30 12:17:25;;;;;;;10.27;4.13;;;;;;;;;;5084416;28;20267;-79
2024/01/30 12:19:51;;;;;;;10.50;5.07;;;;;;;;;;5077957;28;20212;-80
2024/01/30 12:22:17;;;;;;;7.23;4.60;;;;;;;;;;5086250;28;20235;-80
2024/01/30 12:24:43;;;;;;;7.67;4.77;;;;;;;;;;5086600;28;20219;-80
2024/01/30 12:27:09;;;;;;;10.27;5.13;;;;;;;;;;5086572;28;20175;-79
2024/01/30 12:29:35;;;;;;;10.10;5.03;;;;;;;;;;5089478;28;20175;-80
2024/01/30 12:32:01;;;;;;;8.77;5.47;;;;;;;;;;5088863;28;20630;-81
2024/01/30 12:34:27;;;;;;;9.27;4.83;;;;;;;;;;5090394;28;20278;-82
2024/01/30 12:36:53;;;;;;;8.83;4.87;;;;;;;;;;5091919;28;20225;-81
2024/01/30 12:39:19;;;;;;;11.50;5.07;;;;;;;;;;5082912;28;20218;-81
2024/01/30 12:41:45;;;;;;;10.10;4.40;;;;;;;;;;5091144;28;20932;-80
2024/01/30 12:44:11;;;;;;;12.43;4.93;;;;;;;;;;5087576;28;20712;-80
2024/01/30 12:46:37;;;;;;;8.87;4.60;;;;;;;;;;5090176;28;20210;-81
2024/01/30 12:49:03;;;;;;;9.00;4.70;;;;;;;;;;5088234;28;20211;-81
2024/01/30 12:51:29;;;;;;;11.93;5.00;;;;;;;;;;5080038;28;20693;-81
2024/01/30 12:53:55;;;;;;;9.70;5.17;;;;;;;;;;5090985;28;20799;-80
2024/01/30 12:56:21;;;;;;;11.97;4.67;;;;;;;;;;5084587;28;20238;-81
2024/01/30 12:58:47;;;;;;;9.33;5.27;;;;;;;;;;5090642;28;20210;-79
2024/01/30 13:01:13;;;;;;;12.27;5.20;;;;;;;;;;5089526;28;20234;-80
2024/01/30 13:03:40;;;;;;;7.53;4.93;;;;;;;;;;5093885;28;20383;-81
2024/01/30 13:06:06;;;;;;;8.77;5.60;;;;;;;;;;5094780;28;20728;-78
2024/01/30 13:08:32;;;;;;;13.13;5.47;;;;;;;;;;5095516;28;20206;-81
2024/01/30 13:10:58;;;;;;;11.23;4.80;;;;;;;;;;5094232;28;20281;-80
2024/01/30 13:13:24;;;;;;;11.97;4.70;;;;;;;;;;5091848;28;20636;-80
2024/01/30 13:15:50;;;;;;;11.23;4.70;;;;;;;;;;5091092;28;20219;-81
2024/01/30 13:18:16;;;;;;;9.23;5.73;;;;;;;;;;5093564;28;20570;-81
2024/01/30 13:20:42;;;;;;;13.60;5.73;;;;;;;;;;5088419;28;20203;-82
2024/01/30 13:23:08;;;;;;;8.47;4.23;;;;;;;;;;5091137;28;20261;-78
2024/01/30 13:25:34;;;;;;;10.60;5.07;;;;;;;;;;5088022;28;20532;-81
2024/01/30 13:28:01;;;;;;;11.30;4.83;;;;;;;;;;5093299;28;20298;-82
2024/01/30 13:30:27;;;;;;;10.93;5.67;;;;;;;;;;5087748;28;20641;-81
2024/01/30 13:32:54;;;;;;;11.20;5.37;;;;;;;;;;5091592;28;20868;-80
2024/01/30 13:35:20;;;;;;;10.27;5.37;;;;;;;;;;5092058;28;20249;-83
2024/01/30 13:37:48;;;;;;;10.17;5.17;;;;;;;;;;5091634;28;20219;-81
2024/01/30 13:40:16;;;;;;;12.50;5.40;;;;;;;;;;5093450;28;20240;-81
2024/01/30 13:42:42;;;;;;;17.10;5.90;;;;;;;;;;5094328;28;20242;-81
2024/01/30 13:45:09;;;;;;;9.33;4.97;;;;;;;;;;5091726;28;20672;-80
2024/01/30 13:47:35;;;;;;;14.37;5.33;;;;;;;;;;5090514;28;20182;-81
2024/01/30 13:50:02;;;;;;;14.17;5.50;;;;;;;;;;5091319;28;20206;-81
2024/01/30 13:52:28;;;;;;;8.33;5.10;;;;;;;;;;5092333;28;20692;-81
2024/01/30 13:54:55;;;;;;;12.47;5.27;;;;;;;;;;5088167;28;20738;-80
2024/01/30 13:57:21;;;;;;;13.03;5.20;;;;;;;;;;5089772;28;20271;-83
2024/01/30 13:59:47;;;;;;;10.13;4.90;;;;;;;;;;5077018;28;20170;-81
2024/01/30 14:02:13;;;;;;;13.73;4.73;;;;;;;;;;5090995;28;20222;-80
2024/01/30 14:04:39;;;;;;;11.23;5.00;;;;;;;;;;5088230;28;20280;-80
2024/01/30 14:07:06;;;;;;;9.60;4.97;;;;;;;;;;5089701;28;20225;-80
2024/01/30 14:09:32;;;;;;;7.23;4.67;;;;;;;;;;5083065;28;20219;-80
2024/01/30 14:11:58;;;;;;;9.43;5.03;;;;;;;;;;5092723;28;20185;-79
2024/01/30 14:14:24;;;;;;;8.30;4.87;;;;;;;;;;5084839;28;20202;-80
2024/01/30 14:16:50;;;;;;;12.13;5.10;;;;;;;;;;5087291;28;20263;-78
2024/01/30 14:19:16;;;;;;;9.77;5.27;;;;;;;;;;5092641;28;20252;-80
2024/01/30 14:21:42;;;;;;;10.20;4.63;;;;;;;;;;5082068;28;20242;-80
2024/01/30 14:24:09;;;;;;;9.53;5.07;;;;;;;;;;5068218;28;20351;-81
2024/01/30 14:26:36;;;;;;;9.80;5.40;;;;;;;;;;5085280;28;20210;-81
2024/01/30 14:29:02;;;;;;;10.63;4.90;;;;;;;;;;5083156;28;20214;-81
2024/01/30 14:31:28;;;;;;;9.03;4.77;;;;;;;;;;5089273;28;20229;-81
2024/01/30 14:33:55;;;;;;;10.57;4.90;;;;;;;;;;5089123;28;20298;-81